Time;durP1;ratioP1;P1;durP2;ratioP2;P2;SDS_P1;SDS_P2;PMS_P1;PMS_P2;Temp;Humidity;BMP_temperature;BMP_pressure;BME280_temperature;BME280_humidity;BME280_pressure;Samples;Min_cycle;Max_cycle;Signal;HPM_P1;HPM_P2
2023/05/31 00:01:31;;;;;;;1.30;0.77;;;13.50;90.60;;;;;;5034370;28;20437;-73
2023/05/31 00:03:58;;;;;;;0.75;0.65;;;13.40;97.70;;;;;;5034190;28;20429;-73
2023/05/31 00:06:27;;;;;;;0.93;0.80;;;13.50;91.90;;;;;;5031944;28;20429;-73
2023/05/31 00:08:54;;;;;;;0.40;0.40;;;13.50;92.50;;;;;;5034754;28;20514;-73
2023/05/31 00:11:22;;;;;;;0.95;0.80;;;13.40;93.10;;;;;;5039790;28;20535;-72
2023/05/31 00:13:48;;;;;;;0.70;0.70;;;13.40;94.90;;;;;;5035851;28;20425;-72
2023/05/31 00:16:18;;;;;;;0.25;0.25;;;13.50;95.60;;;;;;5036153;28;20514;-73
2023/05/31 00:19:05;;;;;;;0.43;0.38;;;13.50;96.40;;;;;;5037205;28;20425;-72
2023/05/31 00:21:38;;;;;;;3.08;0.82;;;13.40;97.90;;;;;;5034727;28;20551;-73
2023/05/31 00:24:05;;;;;;;0.38;0.35;;;13.40;99.90;;;;;;5035262;28;20522;-73
2023/05/31 00:26:38;;;;;;;2.88;1.23;;;13.40;99.90;;;;;;5036964;28;20433;-73
2023/05/31 00:29:05;;;;;;;0.75;0.57;;;13.40;99.90;;;;;;5035100;28;20476;-73
2023/05/31 00:31:32;;;;;;;4.70;1.00;;;13.40;99.90;;;;;;5034358;28;20527;-73
2023/05/31 00:34:01;;;;;;;2.85;0.80;;;13.40;99.90;;;;;;5043595;28;20468;-73
2023/05/31 00:36:28;;;;;;;1.67;0.77;;;13.30;99.90;;;;;;5062388;28;20456;-73
2023/05/31 00:38:55;;;;;;;0.52;0.52;;;13.30;99.90;;;;;;5033368;28;20548;-73
2023/05/31 00:41:22;;;;;;;0.60;0.60;;;13.30;99.90;;;;;;5062007;28;20436;-72
2023/05/31 00:43:49;;;;;;;0.57;0.57;;;13.30;99.90;;;;;;5030621;28;20435;-73
2023/05/31 00:46:26;;;;;;;1.50;0.70;;;13.20;99.90;;;;;;5031630;28;20439;-73
2023/05/31 00:48:55;;;;;;;0.43;0.43;;;13.30;99.90;;;;;;5061843;28;20439;-72
2023/05/31 00:51:27;;;;;;;1.70;0.93;;;13.30;99.90;;;;;;5030319;28;20990;-72
2023/05/31 00:53:54;;;;;;;5.05;1.05;;;13.30;99.90;;;;;;5033518;28;20587;-72
2023/05/31 00:56:21;;;;;;;0.60;0.60;;;13.30;99.90;;;;;;5030418;28;20514;-72
2023/05/31 00:58:50;;;;;;;5.68;1.15;;;13.40;99.90;;;;;;5028440;28;20450;-72
2023/05/31 01:01:17;;;;;;;0.37;0.37;;;13.30;99.90;;;;;;5030602;28;21011;-72
2023/05/31 01:03:47;;;;;;;0.30;0.30;;;13.40;99.90;;;;;;5061841;28;21039;-72
2023/05/31 01:06:15;;;;;;;1.20;1.00;;;13.40;99.90;;;;;;5062521;28;20428;-72
2023/05/31 01:08:42;;;;;;;1.20;0.63;;;13.40;99.90;;;;;;5062285;28;20512;-73
2023/05/31 01:11:31;;;;;;;0.65;0.60;;;13.30;99.90;;;;;;5038053;28;20524;-72
2023/05/31 01:14:04;;;;;;;3.65;0.75;;;13.30;99.90;;;;;;5032968;28;20572;-72
2023/05/31 01:16:43;;;;;;;1.17;0.60;;;13.20;99.90;;;;;;5033221;28;20524;-72
2023/05/31 01:19:29;;;;;;;0.90;0.90;;;13.20;99.90;;;;;;5031659;28;21066;-73
2023/05/31 01:22:27;;;;;;;1.38;0.63;;;13.30;99.90;;;;;;5047549;28;20868;-72
2023/05/31 01:25:14;;;;;;;0.32;0.32;;;13.30;99.90;;;;;;5061510;28;20896;-72
2023/05/31 01:27:43;;;;;;;0.80;0.40;;;13.20;99.90;;;;;;5030986;28;20484;-73
2023/05/31 01:30:11;;;;;;;0.80;0.80;;;13.10;99.90;;;;;;5031359;28;20445;-73
2023/05/31 01:32:38;;;;;;;0.38;0.38;;;13.10;99.90;;;;;;5032143;28;20447;-73
2023/05/31 01:35:06;;;;;;;3.08;0.52;;;13.00;99.90;;;;;;5030333;28;20437;-72
2023/05/31 01:37:32;;;;;;;0.20;0.20;;;13.00;1.00;;;;;;5031887;28;20460;-73
2023/05/31 01:39:59;;;;;;;0.20;0.20;;;13.00;1.00;;;;;;5031468;28;20954;-73
2023/05/31 01:42:27;;;;;;;0.20;0.20;;;13.00;1.00;;;;;;5061412;28;20451;-73
2023/05/31 01:44:55;;;;;;;0.50;0.50;;;13.00;1.00;;;;;;5030567;28;20999;-73
2023/05/31 01:47:23;;;;;;;0.30;0.30;;;12.90;1.00;;;;;;5032357;28;21100;-73
2023/05/31 01:49:50;;;;;;;0.80;0.70;;;12.90;1.00;;;;;;5032301;28;20586;-73
2023/05/31 01:52:18;;;;;;;0.20;0.20;;;12.90;1.00;;;;;;5031274;28;20447;-73
2023/05/31 01:54:45;;;;;;;0.30;0.30;;;12.80;1.00;;;;;;5032450;28;20516;-73
2023/05/31 01:57:14;;;;;;;9.50;0.60;;;12.80;1.00;;;;;;5030520;28;20525;-73
2023/05/31 01:59:42;;;;;;;0.55;0.55;;;12.80;1.00;;;;;;5032660;28;20443;-73
2023/05/31 02:02:09;;;;;;;0.63;0.63;;;12.80;1.00;;;;;;5030711;28;20428;-73
2023/05/31 02:04:36;;;;;;;0.20;0.20;;;12.90;1.00;;;;;;5028431;28;20811;-73
2023/05/31 02:07:04;;;;;;;0.70;0.45;;;12.90;1.00;;;;;;5031497;28;20882;-73
2023/05/31 02:09:31;;;;;;;10.73;9.98;;;12.90;1.00;;;;;;5064925;28;20435;-73
2023/05/31 02:11:58;;;;;;;0.20;0.20;;;12.80;1.00;;;;;;5040176;28;20433;-73
2023/05/31 02:14:24;;;;;;;1.50;0.85;;;12.80;15.90;;;;;;5034248;28;20448;-73
2023/05/31 02:16:51;;;;;;;0.50;0.50;;;12.80;46.80;;;;;;5036100;28;20570;-73
2023/05/31 02:19:19;;;;;;;0.20;0.20;;;12.80;44.10;;;;;;5037144;28;21020;-73
2023/05/31 02:21:46;;;;;;;0.50;0.50;;;12.80;18.40;;;;;;5035634;28;20465;-73
2023/05/31 02:24:15;;;;;;;0.63;0.63;;;12.80;99.90;;;;;;5034244;28;20918;-73
2023/05/31 02:26:42;;;;;;;1.50;0.45;;;12.80;99.90;;;;;;5034981;28;20535;-73
2023/05/31 02:29:09;;;;;;;0.30;0.30;;;12.80;99.90;;;;;;5033689;28;20949;-73
2023/05/31 02:31:36;;;;;;;0.25;0.25;;;12.70;99.90;;;;;;5034971;28;20444;-73
2023/05/31 02:34:03;;;;;;;0.40;0.40;;;12.70;99.90;;;;;;5066681;28;20442;-73
2023/05/31 02:36:33;;;;;;;0.50;0.50;;;12.70;99.90;;;;;;5033405;28;20919;-73
2023/05/31 02:39:00;;;;;;;0.20;0.20;;;12.70;99.90;;;;;;5036563;28;20455;-73
2023/05/31 02:41:27;;;;;;;0.43;0.43;;;12.70;99.90;;;;;;5033606;28;20465;-73
2023/05/31 02:43:53;;;;;;;0.20;0.20;;;12.60;99.90;;;;;;5065756;28;20417;-73
2023/05/31 02:46:20;;;;;;;1.00;1.00;;;12.60;99.90;;;;;;5063032;28;20462;-73
2023/05/31 02:48:47;;;;;;;0.10;0.10;;;12.60;1.00;;;;;;5032817;28;20431;-73
2023/05/31 02:51:13;;;;;;;0.55;0.55;;;12.60;1.00;;;;;;5033200;28;20488;-72
2023/05/31 02:53:40;;;;;;;156.50;140.80;;;12.60;1.00;;;;;;5034043;28;20588;-73
2023/05/31 02:56:08;;;;;;;17.13;15.77;;;12.50;1.00;;;;;;5033537;28;20524;-73
2023/05/31 02:58:35;;;;;;;0.80;0.35;;;12.50;1.00;;;;;;5032407;28;21149;-74
2023/05/31 03:01:02;;;;;;;0.50;0.50;;;12.40;1.00;;;;;;5030608;28;20429;-73
2023/05/31 03:03:29;;;;;;;0.30;0.30;;;12.30;54.50;;;;;;5033543;28;20433;-73
2023/05/31 03:05:59;;;;;;;0.10;0.10;;;12.30;99.90;;;;;;5031767;28;20437;-73
2023/05/31 03:08:26;;;;;;;0.20;0.20;;;12.30;99.90;;;;;;5029738;28;20920;-73
2023/05/31 03:10:53;;;;;;;0.20;0.20;;;12.30;99.90;;;;;;5039549;28;20557;-73
2023/05/31 03:13:20;;;;;;;0.28;0.28;;;12.30;99.90;;;;;;5032816;28;20433;-73
2023/05/31 03:15:47;;;;;;;0.60;0.50;;;12.20;99.90;;;;;;5033262;28;20580;-72
2023/05/31 03:18:16;;;;;;;0.47;0.47;;;12.20;99.90;;;;;;5034591;28;20835;-73
2023/05/31 03:20:43;;;;;;;10.38;9.90;;;12.20;1.00;;;;;;5033107;28;20924;-73
2023/05/31 03:23:13;;;;;;;60.20;55.17;;;12.20;99.90;;;;;;5034104;28;20433;-73
2023/05/31 03:25:40;;;;;;;0.40;0.40;;;12.20;1.00;;;;;;5031527;28;20435;-73
2023/05/31 03:28:07;;;;;;;24.50;22.08;;;12.30;1.00;;;;;;5034741;28;20441;-73
2023/05/31 03:30:34;;;;;;;0.20;0.20;;;12.20;1.00;;;;;;5032638;28;20441;-73
2023/05/31 03:33:02;;;;;;;0.20;0.20;;;12.20;1.00;;;;;;5034314;28;20433;-73
2023/05/31 03:35:29;;;;;;;0.13;0.13;;;12.20;1.00;;;;;;5033968;28;21054;-73
2023/05/31 03:37:56;;;;;;;7.00;6.30;;;12.20;1.00;;;;;;5032917;28;20449;-73
2023/05/31 03:40:23;;;;;;;6.00;5.60;;;12.20;1.00;;;;;;5034029;28;20852;-73
2023/05/31 03:42:50;;;;;;;0.30;0.30;;;12.20;1.00;;;;;;5033078;28;20462;-74
2023/05/31 03:45:16;;;;;;;0.40;0.40;;;12.10;99.80;;;;;;5033669;28;20434;-73
2023/05/31 03:47:43;;;;;;;0.65;0.65;;;12.10;30.30;;;;;;5034245;28;20438;-73
2023/05/31 03:50:13;;;;;;;0.13;0.13;;;12.10;48.50;;;;;;5032709;28;20436;-73
2023/05/31 03:52:40;;;;;;;0.30;0.30;;;12.10;99.90;;;;;;5032633;28;20510;-73
2023/05/31 03:55:08;;;;;;;0.20;0.20;;;12.10;99.90;;;;;;5033050;28;20483;-73
2023/05/31 03:57:35;;;;;;;0.60;0.60;;;12.20;99.90;;;;;;5032161;28;20469;-74
2023/05/31 04:00:02;;;;;;;0.30;0.13;;;12.20;99.90;;;;;;5032517;28;20633;-73
2023/05/31 04:02:30;;;;;;;2.80;0.70;;;12.20;5.30;;;;;;5031764;28;20491;-74
2023/05/31 04:04:57;;;;;;;0.65;0.65;;;12.20;1.00;;;;;;5033343;28;20445;-74
2023/05/31 04:07:25;;;;;;;0.60;0.57;;;12.30;1.00;;;;;;5034826;28;20542;-74
2023/05/31 04:09:51;;;;;;;2.13;0.98;;;12.30;1.00;;;;;;5029860;28;20524;-74
2023/05/31 04:12:18;;;;;;;0.45;0.43;;;12.40;1.00;;;;;;5034870;28;20509;-74
2023/05/31 04:14:45;;;;;;;0.30;0.30;;;12.50;99.90;;;;;;5032723;28;20443;-74
2023/05/31 04:17:12;;;;;;;0.20;0.20;;;12.50;99.90;;;;;;5032690;28;20760;-74
2023/05/31 04:19:39;;;;;;;0.32;0.32;;;12.50;99.90;;;;;;5033587;28;20846;-72
2023/05/31 04:22:06;;;;;;;0.10;0.10;;;12.60;99.90;;;;;;5032592;28;20978;-74
2023/05/31 04:24:35;;;;;;;0.70;0.70;;;12.60;1.00;;;;;;5031598;28;20835;-73
2023/05/31 04:27:03;;;;;;;0.22;0.22;;;12.70;1.00;;;;;;5031965;28;20564;-73
2023/05/31 04:29:30;;;;;;;0.35;0.20;;;12.80;1.00;;;;;;5036966;28;20464;-72
2023/05/31 04:31:58;;;;;;;0.45;0.45;;;12.80;1.00;;;;;;5033583;28;20423;-72
2023/05/31 04:34:26;;;;;;;1.20;0.70;;;12.90;1.00;;;;;;5035867;28;20448;-72
2023/05/31 04:36:53;;;;;;;0.30;0.30;;;12.90;1.00;;;;;;5034218;28;20431;-74
2023/05/31 04:39:21;;;;;;;5.70;1.00;;;13.10;1.00;;;;;;5034436;28;20518;-73
2023/05/31 04:41:49;;;;;;;0.50;0.50;;;13.60;99.90;;;;;;5033730;28;20449;-75
2023/05/31 04:44:18;;;;;;;0.55;0.45;;;14.30;1.00;;;;;;5033613;28;20479;-75
2023/05/31 04:46:46;;;;;;;0.50;0.50;;;15.00;99.90;;;;;;5031674;28;20921;-75
2023/05/31 04:49:13;;;;;;;0.40;0.40;;;15.50;99.90;;;;;;5022973;28;20553;-76
2023/05/31 04:51:40;;;;;;;0.40;0.40;;;15.90;99.90;;;;;;5061818;28;20429;-75
2023/05/31 04:54:07;;;;;;;0.60;0.50;;;16.20;99.90;;;;;;5028036;28;20452;-75
2023/05/31 04:56:34;;;;;;;0.30;0.30;;;16.50;99.90;;;;;;5029911;28;20946;-76
2023/05/31 04:59:00;;;;;;;2.25;0.63;;;16.80;99.90;;;;;;5058875;28;22258;-75
2023/05/31 05:01:28;;;;;;;0.40;0.40;;;16.90;99.90;;;;;;5060648;28;20652;-75
2023/05/31 05:03:55;;;;;;;0.40;0.40;;;16.90;99.90;;;;;;5028905;28;20534;-75
2023/05/31 05:06:24;;;;;;;4.00;0.60;;;16.70;99.90;;;;;;5030225;28;20888;-75
2023/05/31 05:09:04;;;;;;;0.50;0.50;;;16.70;99.90;;;;;;5025963;28;20425;-74
2023/05/31 05:11:31;;;;;;;1.00;1.00;;;17.00;99.90;;;;;;5030270;28;20433;-75
2023/05/31 05:13:59;;;;;;;0.30;0.28;;;17.30;99.90;;;;;;5029036;28;20432;-75
2023/05/31 05:16:26;;;;;;;0.40;0.40;;;17.70;99.90;;;;;;5030737;28;20823;-75
2023/05/31 05:18:53;;;;;;;1.00;0.60;;;18.10;99.90;;;;;;5030889;28;20456;-76
2023/05/31 05:21:19;;;;;;;0.10;0.10;;;18.50;99.90;;;;;;5030853;28;20463;-75
2023/05/31 05:23:46;;;;;;;0.30;0.30;;;18.60;99.90;;;;;;5028004;28;20437;-76
2023/05/31 05:26:16;;;;;;;0.50;0.50;;;18.90;99.90;;;;;;5030034;28;20441;-75
2023/05/31 05:28:43;;;;;;;0.63;0.63;;;19.00;99.90;;;;;;5031717;28;20456;-76
2023/05/31 05:31:10;;;;;;;0.20;0.20;;;19.00;99.90;;;;;;5031486;28;20440;-76
2023/05/31 05:33:36;;;;;;;0.30;0.30;;;19.10;99.90;;;;;;5029139;28;20873;-76
2023/05/31 05:36:03;;;;;;;0.35;0.28;;;19.10;99.90;;;;;;5028649;28;20943;-75
2023/05/31 05:38:30;;;;;;;0.55;0.55;;;19.40;99.90;;;;;;5029964;28;20436;-76
2023/05/31 05:40:57;;;;;;;0.20;0.20;;;19.50;99.90;;;;;;5031138;28;20747;-76
2023/05/31 05:43:24;;;;;;;0.30;0.30;;;19.90;99.90;;;;;;5029891;28;20428;-75
2023/05/31 05:45:50;;;;;;;3.80;0.35;;;20.20;99.90;;;;;;5030414;28;20433;-76
2023/05/31 05:48:17;;;;;;;4.90;0.88;;;20.30;99.90;;;;;;5032366;28;20974;-75
2023/05/31 05:50:45;;;;;;;0.73;0.73;;;20.50;99.90;;;;;;5034846;28;20437;-76
2023/05/31 05:53:12;;;;;;;0.47;0.47;;;20.50;99.90;;;;;;5037205;28;20429;-75
2023/05/31 05:55:38;;;;;;;7.30;7.03;;;20.60;99.90;;;;;;5031727;28;20439;-77
2023/05/31 05:58:05;;;;;;;0.47;0.47;;;20.70;99.90;;;;;;5031154;28;21898;-75
2023/05/31 06:00:32;;;;;;;0.30;0.30;;;20.70;99.90;;;;;;5033854;28;20465;-76
2023/05/31 06:02:59;;;;;;;3.40;0.28;;;21.00;99.90;;;;;;5034562;28;20831;-76
2023/05/31 06:05:28;;;;;;;1.30;1.02;;;21.00;99.90;;;;;;5035795;28;20465;-75
2023/05/31 06:07:54;;;;;;;0.28;0.28;;;21.00;99.90;;;;;;5032288;28;20433;-75
2023/05/31 06:10:22;;;;;;;8.48;8.10;;;20.90;99.90;;;;;;5031648;28;20634;-74
2023/05/31 06:12:48;;;;;;;2.40;2.40;;;20.90;99.90;;;;;;5033230;28;20448;-76
2023/05/31 06:15:15;;;;;;;157.65;144.55;;;21.10;99.90;;;;;;5034646;28;20432;-75
2023/05/31 06:17:43;;;;;;;557.22;504.33;;;21.30;99.90;;;;;;5031004;28;20429;-75
2023/05/31 06:20:10;;;;;;;853.72;780.03;;;21.40;99.90;;;;;;5032307;28;20437;-75
2023/05/31 06:22:37;;;;;;;889.40;802.35;;;21.30;99.90;;;;;;5030244;28;20465;-75
2023/05/31 06:25:05;;;;;;;8.70;0.40;;;21.50;99.90;;;;;;5032975;28;20843;-76
2023/05/31 06:27:32;;;;;;;10.60;9.82;;;21.90;99.90;;;;;;5031114;28;20443;-75
2023/05/31 06:30:00;;;;;;;0.40;0.40;;;22.10;99.90;;;;;;5031322;28;20832;-76
2023/05/31 06:32:30;;;;;;;0.80;0.50;;;22.20;99.90;;;;;;5034158;28;20521;-75
2023/05/31 06:34:57;;;;;;;0.73;0.50;;;22.60;99.90;;;;;;5029074;28;20443;-75
2023/05/31 06:37:24;;;;;;;3.30;1.00;;;22.70;99.90;;;;;;5035872;28;20437;-75
2023/05/31 06:39:50;;;;;;;0.32;0.32;;;22.40;99.90;;;;;;5032910;28;21003;-75
2023/05/31 06:42:18;;;;;;;0.60;0.47;;;22.30;99.90;;;;;;5032520;28;20467;-75
2023/05/31 06:44:45;;;;;;;4.53;0.73;;;22.40;99.90;;;;;;5030477;28;20440;-76
2023/05/31 06:47:22;;;;;;;1.80;0.73;;;22.60;99.90;;;;;;5030759;28;20545;-76
2023/05/31 06:49:49;;;;;;;1.25;0.82;;;23.10;99.90;;;;;;5033395;28;20425;-76
2023/05/31 06:52:16;;;;;;;0.63;0.63;;;23.50;99.90;;;;;;5063919;28;20429;-75
2023/05/31 06:54:43;;;;;;;0.30;0.30;;;23.70;99.90;;;;;;5029784;28;20425;-75
2023/05/31 06:57:10;;;;;;;0.32;0.32;;;23.90;99.90;;;;;;5035433;28;20429;-76
2023/05/31 06:59:40;;;;;;;0.90;0.47;;;23.90;99.90;;;;;;5032956;28;20442;-75
2023/05/31 07:02:09;;;;;;;1.50;0.50;;;23.70;99.90;;;;;;5031676;28;20884;-74
2023/05/31 07:04:35;;;;;;;0.70;0.70;;;23.80;99.90;;;;;;5028894;28;20454;-74
2023/05/31 07:07:05;;;;;;;0.60;0.60;;;23.90;99.90;;;;;;5031234;28;20811;-73
2023/05/31 07:09:32;;;;;;;0.50;0.50;;;23.90;99.90;;;;;;5031178;28;20461;-75
2023/05/31 07:12:00;;;;;;;0.55;0.55;;;24.10;99.90;;;;;;5062296;28;20579;-74
2023/05/31 07:14:30;;;;;;;0.47;0.45;;;24.40;99.90;;;;;;5031751;28;20434;-75
2023/05/31 07:17:00;;;;;;;0.70;0.53;;;24.60;99.90;;;;;;5031670;28;21112;-74
2023/05/31 07:19:28;;;;;;;0.47;0.38;;;25.10;99.90;;;;;;5030569;28;20520;-73
2023/05/31 07:21:55;;;;;;;0.57;0.57;;;24.90;99.90;;;;;;5034099;28;20433;-73
2023/05/31 07:24:22;;;;;;;2.80;0.50;;;25.00;99.90;;;;;;5034990;28;20532;-74
2023/05/31 07:26:49;;;;;;;0.57;0.57;;;24.70;99.90;;;;;;5032016;28;20468;-73
2023/05/31 07:29:16;;;;;;;0.90;0.55;;;24.70;99.90;;;;;;5030428;28;20433;-75
2023/05/31 07:31:42;;;;;;;0.28;0.28;;;25.20;99.90;;;;;;5032540;28;20456;-73
2023/05/31 07:34:09;;;;;;;8.95;0.63;;;25.20;99.90;;;;;;5032011;28;21271;-72
2023/05/31 07:36:36;;;;;;;0.63;0.43;;;25.00;99.90;;;;;;5030926;28;20436;-73
2023/05/31 07:39:05;;;;;;;0.70;0.70;;;24.80;99.90;;;;;;5028678;28;20431;-72
2023/05/31 07:41:34;;;;;;;0.35;0.35;;;24.90;99.90;;;;;;5032805;28;20847;-73
2023/05/31 07:44:02;;;;;;;0.22;0.22;;;24.70;99.90;;;;;;5029389;28;21118;-73
2023/05/31 07:46:29;;;;;;;3.30;0.57;;;25.30;99.90;;;;;;5032108;28;20468;-72
2023/05/31 07:48:56;;;;;;;0.70;0.50;;;25.50;99.90;;;;;;5032106;28;20469;-73
2023/05/31 07:51:27;;;;;;;0.40;0.40;;;25.80;99.90;;;;;;5032091;28;20554;-73
2023/05/31 07:53:54;;;;;;;0.30;0.30;;;25.60;99.90;;;;;;5031842;28;20441;-73
2023/05/31 07:56:21;;;;;;;6.20;0.70;;;25.60;99.90;;;;;;5031037;28;20426;-73
2023/05/31 07:58:47;;;;;;;1.13;0.50;;;25.00;99.90;;;;;;5031593;28;20768;-73
2023/05/31 08:01:14;;;;;;;4.10;0.40;;;25.00;99.90;;;;;;5031272;28;20437;-73
2023/05/31 08:03:41;;;;;;;0.45;0.32;;;24.30;99.90;;;;;;5027291;28;20473;-73
2023/05/31 08:06:08;;;;;;;0.32;0.32;;;24.80;99.90;;;;;;5032339;28;20463;-73
2023/05/31 08:08:35;;;;;;;1.60;0.40;;;24.60;99.90;;;;;;5032044;28;20429;-73
2023/05/31 08:11:02;;;;;;;0.45;0.45;;;25.10;99.90;;;;;;5030597;28;20533;-73
2023/05/31 08:13:32;;;;;;;0.80;0.80;;;24.90;99.90;;;;;;5059646;28;20488;-73
2023/05/31 08:16:00;;;;;;;0.40;0.40;;;25.60;99.90;;;;;;5062578;28;20664;-73
2023/05/31 08:18:27;;;;;;;0.25;0.25;;;25.90;99.90;;;;;;5030799;28;21493;-73
2023/05/31 08:20:55;;;;;;;0.40;0.40;;;25.40;99.90;;;;;;5028695;28;20920;-73
2023/05/31 08:23:25;;;;;;;0.40;0.40;;;25.20;99.90;;;;;;5029238;28;20516;-73
2023/05/31 08:25:54;;;;;;;0.25;0.25;;;25.30;99.90;;;;;;5028189;28;20433;-73
2023/05/31 08:28:20;;;;;;;0.38;0.38;;;25.10;99.90;;;;;;5033083;28;20911;-73
2023/05/31 08:30:48;;;;;;;0.15;0.15;;;25.40;99.90;;;;;;5033605;28;20439;-73
2023/05/31 08:33:15;;;;;;;0.40;0.40;;;25.20;99.90;;;;;;5029630;28;20433;-74
2023/05/31 08:35:42;;;;;;;1.00;0.77;;;24.30;99.90;;;;;;5030601;28;20847;-75
2023/05/31 08:38:09;;;;;;;2.30;1.10;;;24.50;99.90;;;;;;5031106;28;21706;-73
2023/05/31 08:40:38;;;;;;;0.28;0.28;;;24.60;99.90;;;;;;5031718;28;20844;-74
2023/05/31 08:43:09;;;;;;;0.30;0.30;;;24.30;99.90;;;;;;5029328;28;20983;-73
2023/05/31 08:45:37;;;;;;;3.50;0.40;;;24.40;99.90;;;;;;5030099;28;20425;-73
2023/05/31 08:48:16;;;;;;;0.82;0.82;;;24.40;99.90;;;;;;5032268;28;20437;-72
2023/05/31 08:50:46;;;;;;;0.50;0.50;;;24.60;99.90;;;;;;5028887;28;20434;-73
2023/05/31 08:53:15;;;;;;;2.57;0.60;;;24.30;99.90;;;;;;5028541;28;20476;-72
2023/05/31 08:55:46;;;;;;;0.90;0.40;;;24.80;99.90;;;;;;5030261;28;20521;-73
2023/05/31 08:58:14;;;;;;;0.50;0.50;;;25.30;99.90;;;;;;5031867;28;20437;-73
2023/05/31 09:00:45;;;;;;;0.60;0.50;;;25.70;99.90;;;;;;5049959;28;20965;-74
2023/05/31 09:03:12;;;;;;;0.60;0.38;;;26.00;99.90;;;;;;5050003;28;20805;-73
2023/05/31 09:05:39;;;;;;;0.40;0.30;;;25.40;99.90;;;;;;5040988;28;20491;-74
2023/05/31 09:08:06;;;;;;;0.47;0.45;;;25.70;99.90;;;;;;5080708;28;20937;-72
2023/05/31 09:10:33;;;;;;;2.50;0.50;;;26.20;99.90;;;;;;5052967;28;20430;-73
2023/05/31 09:13:02;;;;;;;0.47;0.28;;;26.50;99.90;;;;;;5060124;28;20867;-73
2023/05/31 09:15:29;;;;;;;0.45;0.45;;;26.00;99.90;;;;;;5055347;28;20556;-73
2023/05/31 09:17:57;;;;;;;0.80;0.80;;;26.00;99.90;;;;;;5046300;28;20908;-73
2023/05/31 09:20:33;;;;;;;0.32;0.32;;;26.00;99.90;;;;;;5042602;28;20433;-74
2023/05/31 09:23:06;;;;;;;0.60;0.60;;;26.10;99.90;;;;;;5051919;28;20495;-74
2023/05/31 09:25:52;;;;;;;0.90;0.30;;;25.60;99.90;;;;;;5052400;28;20458;-73
2023/05/31 09:28:22;;;;;;;0.10;0.10;;;25.40;99.90;;;;;;5057882;28;20522;-74
2023/05/31 09:31:07;;;;;;;0.30;0.30;;;25.10;99.90;;;;;;5050789;28;20437;-73
2023/05/31 09:33:40;;;;;;;0.28;0.28;;;25.10;99.90;;;;;;5042034;28;20998;-74
2023/05/31 09:36:07;;;;;;;0.30;0.30;;;25.00;99.90;;;;;;5033368;28;20456;-74
2023/05/31 09:38:37;;;;;;;0.80;0.80;;;25.40;99.90;;;;;;5047384;28;20452;-73
2023/05/31 09:41:20;;;;;;;0.43;0.43;;;25.70;99.90;;;;;;5042848;28;20810;-73
2023/05/31 09:43:48;;;;;;;9.80;0.60;;;25.70;99.90;;;;;;5058312;28;20419;-74
2023/05/31 09:46:17;;;;;;;0.22;0.22;;;25.30;99.90;;;;;;5056827;28;20423;-74
2023/05/31 09:48:46;;;;;;;0.55;0.32;;;25.30;99.90;;;;;;5034738;28;20527;-74
2023/05/31 09:51:13;;;;;;;0.70;0.20;;;25.30;99.90;;;;;;5031623;28;20433;-74
2023/05/31 09:53:44;;;;;;;0.30;0.30;;;25.80;99.90;;;;;;5026394;28;20566;-74
2023/05/31 09:56:18;;;;;;;0.30;0.30;;;25.50;99.90;;;;;;5031268;28;20433;-74
2023/05/31 09:58:49;;;;;;;0.30;0.30;;;26.00;99.90;;;;;;5032283;28;20544;-74
2023/05/31 10:01:18;;;;;;;0.38;0.38;;;26.10;99.90;;;;;;5061803;28;20435;-73
2023/05/31 10:03:48;;;;;;;1.42;0.40;;;26.10;99.90;;;;;;5061989;28;20857;-74
2023/05/31 10:06:19;;;;;;;0.67;0.40;;;26.10;99.90;;;;;;5031429;28;20439;-74
2023/05/31 10:08:50;;;;;;;0.60;0.60;;;25.60;99.90;;;;;;5030720;28;20436;-72
2023/05/31 10:11:26;;;;;;;0.30;0.30;;;25.50;99.90;;;;;;5029669;28;20431;-72
2023/05/31 10:13:59;;;;;;;0.68;0.68;;;25.50;99.90;;;;;;5032216;28;20522;-72
2023/05/31 10:16:33;;;;;;;0.80;0.40;;;25.70;99.90;;;;;;5028302;28;20431;-73
2023/05/31 10:19:04;;;;;;;0.70;0.20;;;25.80;99.90;;;;;;5027184;28;20445;-72
2023/05/31 10:21:33;;;;;;;0.30;0.30;;;25.60;99.90;;;;;;5060200;28;20756;-72
2023/05/31 10:24:14;;;;;;;0.40;0.40;;;25.80;99.90;;;;;;5026696;28;20444;-72
2023/05/31 10:27:08;;;;;;;0.50;0.30;;;26.20;99.90;;;;;;5026200;28;20469;-72
2023/05/31 10:29:47;;;;;;;0.35;0.35;;;26.40;99.90;;;;;;5034752;28;20435;-73
2023/05/31 10:32:24;;;;;;;0.37;0.37;;;26.40;99.90;;;;;;5063950;28;20985;-73
2023/05/31 10:34:53;;;;;;;0.38;0.35;;;26.50;99.90;;;;;;5034272;28;21151;-72
2023/05/31 10:37:21;;;;;;;0.20;0.20;;;26.30;99.90;;;;;;5035245;28;20429;-72
2023/05/31 10:40:14;;;;;;;1.50;0.20;;;26.30;99.90;;;;;;5032716;28;20443;-72
2023/05/31 10:42:59;;;;;;;0.20;0.20;;;26.80;99.90;;;;;;5058541;28;21537;-73
2023/05/31 10:45:45;;;;;;;0.50;0.28;;;27.00;99.90;;;;;;5032810;28;20432;-72
2023/05/31 10:48:33;;;;;;;0.40;0.40;;;27.30;99.90;;;;;;5031339;28;20433;-73
2023/05/31 10:51:02;;;;;;;0.50;0.50;;;27.20;99.90;;;;;;5031619;28;20512;-72
2023/05/31 10:53:34;;;;;;;0.40;0.40;;;27.30;99.90;;;;;;5032332;28;20437;-73
2023/05/31 10:56:10;;;;;;;0.32;0.32;;;26.90;99.90;;;;;;5032355;28;20954;-70
2023/05/31 10:58:52;;;;;;;0.20;0.20;;;26.80;99.90;;;;;;5027193;28;20515;-70
2023/05/31 11:01:21;;;;;;;1.80;0.50;;;26.70;99.90;;;;;;5032427;28;20492;-71
2023/05/31 11:03:52;;;;;;;0.25;0.25;;;26.50;99.90;;;;;;5033619;28;20429;-72
2023/05/31 11:06:46;;;;;;;0.32;0.32;;;25.80;99.90;;;;;;5031330;28;20431;-70
2023/05/31 11:09:16;;;;;;;1.40;0.70;;;26.00;99.90;;;;;;5034059;28;20464;-72
2023/05/31 11:11:46;;;;;;;1.10;0.70;;;26.40;99.90;;;;;;5032917;28;20444;-73
2023/05/31 11:14:25;;;;;;;1.80;0.50;;;26.40;99.90;;;;;;5051265;28;20475;-72
2023/05/31 11:16:53;;;;;;;0.40;0.40;;;26.50;99.90;;;;;;5060865;28;20535;-70
2023/05/31 11:19:26;;;;;;;0.20;0.20;;;26.80;99.90;;;;;;5030866;28;20467;-70
2023/05/31 11:22:05;;;;;;;0.40;0.30;;;27.10;99.90;;;;;;5034105;28;20456;-70
2023/05/31 11:24:40;;;;;;;1.10;0.40;;;27.30;99.90;;;;;;5034532;28;20441;-71
2023/05/31 11:27:11;;;;;;;13.00;10.30;;;27.50;99.90;;;;;;5034561;28;20837;-70
2023/05/31 11:29:47;;;;;;;15.30;14.15;;;27.30;99.90;;;;;;5034490;28;20522;-71
2023/05/31 11:32:15;;;;;;;9.10;8.30;;;27.50;99.90;;;;;;5036680;28;20498;-70
2023/05/31 11:34:56;;;;;;;173.63;157.73;;;27.40;99.90;;;;;;5033189;28;20436;-70
2023/05/31 11:37:34;;;;;;;2.00;1.77;;;27.50;99.90;;;;;;5033323;28;20678;-73
2023/05/31 11:40:06;;;;;;;0.20;0.20;;;27.40;99.90;;;;;;5032992;28;20515;-72
2023/05/31 11:42:45;;;;;;;0.32;0.32;;;27.90;99.90;;;;;;5032734;28;20433;-71
2023/05/31 11:45:14;;;;;;;0.70;0.20;;;27.90;99.90;;;;;;5032594;28;20828;-71
2023/05/31 11:47:58;;;;;;;0.87;0.27;;;27.90;99.90;;;;;;5062828;28;20765;-71
2023/05/31 11:50:25;;;;;;;0.20;0.20;;;27.90;99.90;;;;;;5036041;28;20468;-72
2023/05/31 11:52:59;;;;;;;0.85;0.45;;;28.00;99.90;;;;;;5031939;28;20429;-71
2023/05/31 11:55:35;;;;;;;1.20;1.10;;;27.50;99.90;;;;;;5036944;28;20467;-71
2023/05/31 11:58:05;;;;;;;0.25;0.25;;;27.20;99.90;;;;;;5034958;28;20433;-72
2023/05/31 12:00:34;;;;;;;0.50;0.40;;;27.00;99.90;;;;;;5031637;28;20535;-72
2023/05/31 12:03:14;;;;;;;0.30;0.30;;;26.80;99.90;;;;;;5035444;28;20822;-72
2023/05/31 12:05:41;;;;;;;0.40;0.40;;;27.40;99.90;;;;;;5032065;28;20491;-71
2023/05/31 12:08:12;;;;;;;1.50;0.45;;;27.90;99.90;;;;;;5031243;28;20433;-71
2023/05/31 12:10:39;;;;;;;6.20;0.50;;;27.70;99.90;;;;;;5033395;28;20429;-71
2023/05/31 12:13:06;;;;;;;0.60;0.40;;;27.20;99.90;;;;;;5030850;28;20516;-71
2023/05/31 12:15:32;;;;;;;0.27;0.27;;;27.50;99.90;;;;;;5032025;28;20433;-71
2023/05/31 12:18:00;;;;;;;0.70;0.60;;;27.10;99.90;;;;;;5035599;28;20433;-71
2023/05/31 12:20:28;;;;;;;3.10;1.00;;;26.90;99.90;;;;;;5033865;28;20939;-71
2023/05/31 12:23:15;;;;;;;0.20;0.20;;;27.40;99.90;;;;;;5032279;28;20444;-71
2023/05/31 12:25:50;;;;;;;3.63;0.47;;;27.50;99.90;;;;;;5032228;28;20515;-71
2023/05/31 12:28:20;;;;;;;0.30;0.30;;;27.40;99.90;;;;;;5028018;28;20981;-72
2023/05/31 12:30:47;;;;;;;0.30;0.30;;;27.30;99.90;;;;;;5034245;28;20862;-72
2023/05/31 12:33:18;;;;;;;0.60;0.60;;;27.50;99.90;;;;;;5064154;28;20530;-72
2023/05/31 12:35:46;;;;;;;0.38;0.38;;;27.60;99.90;;;;;;5030057;28;20521;-71
2023/05/31 12:38:13;;;;;;;3.05;0.75;;;27.60;99.90;;;;;;5032205;28;20429;-71
2023/05/31 12:40:42;;;;;;;0.40;0.35;;;27.30;99.90;;;;;;5032019;28;20518;-71
2023/05/31 12:43:12;;;;;;;0.20;0.20;;;27.50;99.90;;;;;;5033762;28;20524;-72
2023/05/31 12:45:40;;;;;;;2.60;0.90;;;27.30;99.90;;;;;;5024313;28;20483;-71
2023/05/31 12:48:11;;;;;;;0.35;0.30;;;27.80;99.90;;;;;;5033041;28;20437;-71
2023/05/31 12:50:46;;;;;;;0.30;0.30;;;28.20;99.90;;;;;;5032294;28;20436;-72
2023/05/31 12:53:12;;;;;;;0.75;0.40;;;28.10;99.90;;;;;;5034853;28;20868;-71
2023/05/31 12:55:41;;;;;;;0.40;0.30;;;28.20;99.90;;;;;;5030718;28;20456;-71
2023/05/31 12:58:08;;;;;;;0.35;0.35;;;28.40;99.90;;;;;;5060443;28;20491;-71
2023/05/31 13:00:38;;;;;;;0.80;0.32;;;28.70;99.90;;;;;;5045784;28;20482;-71